Time;durP1;ratioP1;P1;durP2;ratioP2;P2;SDS_P1;SDS_P2;PMS_P1;PMS_P2;Temp;Humidity;BMP_temperature;BMP_pressure;BME280_temperature;BME280_humidity;BME280_pressure;Samples;Min_cycle;Max_cycle;Signal;HPM_P1;HPM_P2
2021/12/13 00:00:01;;;;;;;15.82;2.10;;;11.40;99.90;;;;;;5005407;28;20423;-71
2021/12/13 00:02:51;;;;;;;11.43;1.83;;;11.40;99.90;;;;;;4990359;28;20039;-75
2021/12/13 00:05:33;;;;;;;10.88;1.80;;;11.30;99.90;;;;;;4990460;28;20050;-71
2021/12/13 00:08:07;;;;;;;9.48;1.63;;;11.30;99.90;;;;;;4989938;28;20691;-71
2021/12/13 00:10:43;;;;;;;12.50;1.80;;;11.30;99.90;;;;;;4988998;28;20046;-75
2021/12/13 00:13:17;;;;;;;13.90;1.77;;;11.30;99.90;;;;;;4988728;28;20042;-73
2021/12/13 00:15:53;;;;;;;9.25;1.70;;;11.30;99.90;;;;;;4990656;28;20054;-71
2021/12/13 00:18:26;;;;;;;8.65;1.58;;;11.30;99.90;;;;;;5021478;28;20050;-73
2021/12/13 00:21:07;;;;;;;9.75;1.83;;;11.30;99.90;;;;;;4990162;28;20077;-74
2021/12/13 00:23:55;;;;;;;9.68;1.55;;;11.30;99.90;;;;;;5005102;28;20047;-71
2021/12/13 00:26:31;;;;;;;15.48;1.88;;;11.30;99.90;;;;;;5004401;28;20053;-70
2021/12/13 00:29:07;;;;;;;11.05;1.83;;;11.30;99.90;;;;;;4988831;28;20410;-71
2021/12/13 00:31:59;;;;;;;11.30;1.67;;;11.30;99.90;;;;;;5005193;28;20399;-71
2021/12/13 00:34:43;;;;;;;12.07;1.67;;;11.30;99.90;;;;;;5004404;28;20054;-72
2021/12/13 00:37:14;;;;;;;12.35;1.48;;;11.30;99.90;;;;;;5004657;28;20050;-71
2021/12/13 00:39:53;;;;;;;12.05;1.40;;;11.30;99.90;;;;;;4988645;28;20057;-71
2021/12/13 00:42:24;;;;;;;9.85;1.50;;;11.30;99.90;;;;;;5020852;28;20046;-71
2021/12/13 00:45:05;;;;;;;10.02;1.45;;;11.30;99.90;;;;;;4990027;28;20073;-71
2021/12/13 00:47:36;;;;;;;10.27;1.52;;;11.30;99.90;;;;;;4989499;28;20388;-72
2021/12/13 00:50:19;;;;;;;10.70;1.60;;;11.30;99.90;;;;;;4989224;28;20050;-76
2021/12/13 00:52:49;;;;;;;14.32;1.50;;;11.30;99.90;;;;;;5003550;28;20049;-73
2021/12/13 00:55:20;;;;;;;10.80;1.80;;;11.30;99.90;;;;;;5020258;28;20222;-74
2021/12/13 00:57:51;;;;;;;11.80;1.67;;;11.30;99.90;;;;;;4987816;28;20053;-74
2021/12/13 01:00:32;;;;;;;11.30;1.75;;;11.30;99.90;;;;;;4989036;28;20050;-71
2021/12/13 01:03:06;;;;;;;10.50;1.20;;;11.20;99.90;;;;;;4989354;28;20050;-75
2021/12/13 01:06:00;;;;;;;11.85;1.60;;;11.20;99.90;;;;;;5003870;28;20042;-75
2021/12/13 01:09:21;;;;;;;7.53;1.80;;;11.20;99.90;;;;;;4968317;28;20051;-73
2021/12/13 01:11:56;;;;;;;7.97;1.60;;;11.10;99.90;;;;;;4969446;28;20407;-75
2021/12/13 01:14:37;;;;;;;11.90;1.45;;;11.10;99.90;;;;;;4984536;28;20420;-73
2021/12/13 01:17:15;;;;;;;13.55;1.98;;;11.10;99.90;;;;;;4984892;28;20475;-75
2021/12/13 01:19:54;;;;;;;13.88;1.73;;;11.10;99.90;;;;;;4988150;28;20058;-75
2021/12/13 01:22:50;;;;;;;7.28;1.70;;;11.10;99.90;;;;;;5002489;28;20410;-74
2021/12/13 01:25:48;;;;;;;13.48;1.65;;;11.10;99.90;;;;;;4987432;28;20054;-74
2021/12/13 01:28:39;;;;;;;14.02;1.50;;;11.10;99.90;;;;;;5003477;28;20491;-72
2021/12/13 01:31:12;;;;;;;7.20;1.40;;;11.10;99.90;;;;;;4988529;28;20065;-75
2021/12/13 01:33:44;;;;;;;13.50;1.75;;;11.10;99.90;;;;;;5003543;28;20046;-73
2021/12/13 01:36:17;;;;;;;10.40;1.88;;;11.10;99.90;;;;;;4988731;28;20054;-75
2021/12/13 01:38:54;;;;;;;11.32;1.65;;;11.10;99.90;;;;;;5003301;28;20596;-71
2021/12/13 01:41:45;;;;;;;7.35;1.45;;;11.10;99.90;;;;;;4987315;28;20053;-72
2021/12/13 01:44:22;;;;;;;12.68;1.70;;;11.10;99.90;;;;;;4988727;28;20042;-73
2021/12/13 01:46:55;;;;;;;16.15;1.73;;;11.10;99.90;;;;;;4988057;28;20754;-71
2021/12/13 01:49:31;;;;;;;13.65;1.70;;;11.10;99.90;;;;;;4986861;28;20054;-71
2021/12/13 01:52:00;;;;;;;12.30;1.63;;;11.10;99.90;;;;;;4987299;28;20728;-74
2021/12/13 01:54:29;;;;;;;16.98;2.08;;;11.10;99.90;;;;;;4987644;28;20046;-73
2021/12/13 02:00:17;;;;;;;11.70;1.83;;;11.10;99.90;;;;;;5018811;28;20486;-72
2021/12/13 02:02:46;;;;;;;19.30;1.83;;;11.10;99.90;;;;;;4987005;28;20414;-75
2021/12/13 02:05:24;;;;;;;10.90;1.40;;;11.10;99.90;;;;;;4987823;28;20050;-76
2021/12/13 02:07:59;;;;;;;8.70;1.30;;;11.10;99.90;;;;;;4986691;28;20046;-77
2021/12/13 02:10:29;;;;;;;8.10;1.42;;;11.10;99.90;;;;;;4987713;28;20376;-74
2021/12/13 02:13:06;;;;;;;8.70;1.50;;;11.10;99.90;;;;;;4987186;28;20053;-76
2021/12/13 02:18:30;;;;;;;8.65;1.30;;;11.00;99.90;;;;;;4987793;28;20053;-75
2021/12/13 02:21:17;;;;;;;9.10;1.30;;;11.00;99.90;;;;;;5002896;28;20494;-76
2021/12/13 02:23:49;;;;;;;7.35;1.40;;;11.00;99.90;;;;;;5003041;28;20050;-76
2021/12/13 02:26:18;;;;;;;10.30;1.60;;;10.90;99.90;;;;;;4987249;28;20043;-76
2021/12/13 02:28:53;;;;;;;9.98;1.42;;;10.90;99.90;;;;;;4987504;28;20069;-74
2021/12/13 02:31:28;;;;;;;5.80;1.27;;;10.90;99.90;;;;;;5002797;28;20065;-73
2021/12/13 02:43:54;;;;;;;7.22;1.20;;;10.80;99.90;;;;;;4953740;28;20053;-72
2021/12/13 02:46:22;;;;;;;7.57;1.77;;;10.80;99.90;;;;;;4975733;28;20057;-72
2021/12/13 02:48:52;;;;;;;;;;;10.80;99.90;;;;;;4987536;28;20066;-72
2021/12/13 02:51:28;;;;;;;12.60;1.73;;;10.80;99.90;;;;;;4970033;28;19928;-75
2021/12/13 02:54:09;;;;;;;10.05;1.60;;;10.80;99.90;;;;;;4987760;28;20081;-76
2021/12/13 02:56:46;;;;;;;8.18;1.30;;;10.80;99.90;;;;;;4988161;28;20061;-76
2021/12/13 02:59:15;;;;;;;18.45;1.80;;;10.80;99.90;;;;;;4987668;28;20050;-75
2021/12/13 03:01:46;;;;;;;13.30;1.73;;;10.80;99.90;;;;;;4986488;28;20057;-75
2021/12/13 03:04:24;;;;;;;12.05;1.55;;;10.80;99.90;;;;;;4986653;28;20418;-71
2021/12/13 03:07:01;;;;;;;7.97;1.88;;;10.80;99.90;;;;;;5001235;28;20069;-76
2021/12/13 03:09:31;;;;;;;10.35;1.65;;;10.80;99.90;;;;;;4992691;28;20493;-71
2021/12/13 03:12:02;;;;;;;8.50;1.60;;;10.80;99.90;;;;;;4977783;28;20050;-73
2021/12/13 03:14:34;;;;;;;10.60;1.50;;;10.80;99.90;;;;;;4986701;28;20769;-71
2021/12/13 03:17:08;;;;;;;9.85;1.50;;;10.80;99.90;;;;;;4985853;28;20046;-72
2021/12/13 03:19:42;;;;;;;8.73;1.75;;;10.80;99.90;;;;;;5001959;28;20061;-72
2021/12/13 03:22:40;;;;;;;9.15;1.75;;;10.80;99.90;;;;;;4987455;28;20065;-76
2021/12/13 03:25:21;;;;;;;8.65;1.45;;;10.80;99.90;;;;;;4986722;28;20058;-74
2021/12/13 03:28:02;;;;;;;7.50;1.50;;;10.80;99.90;;;;;;4969457;28;20582;-73
2021/12/13 03:30:53;;;;;;;14.35;1.52;;;10.80;99.90;;;;;;4967670;28;20051;-75
2021/12/13 03:33:30;;;;;;;11.27;1.50;;;10.80;99.90;;;;;;4998711;28;20061;-70
2021/12/13 03:36:04;;;;;;;8.70;1.38;;;10.80;99.90;;;;;;4967612;28;20066;-69
2021/12/13 03:38:36;;;;;;;11.13;1.50;;;10.80;99.90;;;;;;4982200;28;20050;-72
2021/12/13 03:41:12;;;;;;;11.10;1.40;;;10.80;99.90;;;;;;4966387;28;20047;-76
2021/12/13 03:43:54;;;;;;;8.18;1.65;;;10.80;99.90;;;;;;4998656;28;20055;-75
2021/12/13 03:46:25;;;;;;;6.90;1.10;;;10.80;99.90;;;;;;4977254;28;20051;-72
2021/12/13 03:48:55;;;;;;;11.10;1.60;;;10.80;99.90;;;;;;5001717;28;20050;-72
2021/12/13 03:51:32;;;;;;;9.80;1.40;;;10.90;99.90;;;;;;4986891;28;20050;-74
2021/12/13 03:54:06;;;;;;;11.75;1.60;;;10.80;99.90;;;;;;4985777;28;20049;-72
2021/12/13 03:56:42;;;;;;;8.25;1.38;;;10.90;99.90;;;;;;4985326;28;20514;-73
2021/12/13 03:59:18;;;;;;;10.38;1.40;;;10.90;99.90;;;;;;5002048;28;20051;-73
2021/12/13 04:02:20;;;;;;;12.70;1.20;;;10.90;99.90;;;;;;5019361;28;20054;-76
2021/12/13 04:04:52;;;;;;;5.78;1.00;;;10.90;99.90;;;;;;4986294;28;20047;-73
2021/12/13 04:07:27;;;;;;;8.77;1.58;;;10.80;99.90;;;;;;4987087;28;20046;-72
2021/12/13 04:09:57;;;;;;;5.60;1.00;;;10.90;99.90;;;;;;4987276;28;20377;-70
2021/12/13 04:12:44;;;;;;;9.00;1.13;;;10.90;99.90;;;;;;4969945;28;20650;-71
2021/12/13 04:15:34;;;;;;;4.93;1.02;;;10.90;99.90;;;;;;4997434;28;20035;-74
2021/12/13 04:18:27;;;;;;;8.10;1.00;;;10.80;99.90;;;;;;4975567;28;20050;-74
2021/12/13 04:21:05;;;;;;;9.02;1.42;;;10.80;99.90;;;;;;4985479;28;20058;-75
2021/12/13 04:23:33;;;;;;;;;;;10.80;99.90;;;;;;4988109;28;20054;-71
2021/12/13 04:26:06;;;;;;;6.03;1.02;;;10.80;99.90;;;;;;4986698;28;19930;-72
2021/12/13 04:28:44;;;;;;;7.35;1.20;;;10.80;99.90;;;;;;4987285;28;20050;-71
2021/12/13 04:31:14;;;;;;;;;;;10.80;99.90;;;;;;4987633;28;20065;-72
2021/12/13 04:33:48;;;;;;;5.82;1.20;;;10.80;99.90;;;;;;4986714;28;19925;-72
2021/12/13 04:36:30;;;;;;;6.25;1.20;;;10.80;99.90;;;;;;4988024;28;20415;-71
2021/12/13 04:39:18;;;;;;;4.82;1.20;;;10.80;99.90;;;;;;4990571;28;20046;-74
2021/12/13 04:41:53;;;;;;;6.30;1.30;;;10.80;99.90;;;;;;4988584;28;20054;-73
2021/12/13 04:44:31;;;;;;;6.10;1.13;;;10.80;99.90;;;;;;4989540;28;20058;-75
2021/12/13 04:47:19;;;;;;;5.82;1.08;;;10.90;99.90;;;;;;4989524;28;20097;-74
2021/12/13 04:50:05;;;;;;;8.48;1.33;;;10.90;99.90;;;;;;5021450;28;20046;-73
2021/12/13 04:52:34;;;;;;;6.57;1.27;;;10.80;99.90;;;;;;4989698;28;20061;-73
2021/12/13 04:55:07;;;;;;;7.20;1.48;;;10.80;99.90;;;;;;5004684;28;20042;-74
2021/12/13 04:57:35;;;;;;;4.75;1.10;;;10.80;99.90;;;;;;5020786;28;20050;-72
2021/12/13 05:00:09;;;;;;;7.00;1.30;;;10.80;99.90;;;;;;5004780;28;20038;-74
2021/12/13 05:02:42;;;;;;;8.38;1.50;;;10.80;99.90;;;;;;4989675;28;20057;-75
2021/12/13 05:05:12;;;;;;;5.00;1.10;;;10.80;99.90;;;;;;4988129;28;20042;-72
2021/12/13 05:07:42;;;;;;;10.80;1.60;;;10.80;99.90;;;;;;5021295;28;20859;-75
2021/12/13 05:10:12;;;;;;;5.72;1.20;;;10.80;99.90;;;;;;5004528;28;20380;-74
2021/12/13 05:12:41;;;;;;;9.50;1.10;;;10.80;99.90;;;;;;4989761;28;20069;-75
2021/12/13 05:15:22;;;;;;;8.98;1.30;;;10.80;99.90;;;;;;4989426;28;20577;-76
2021/12/13 05:17:51;;;;;;;6.95;1.05;;;10.80;99.90;;;;;;4970737;28;20046;-72
2021/12/13 05:20:30;;;;;;;5.85;1.15;;;10.90;99.90;;;;;;4969777;28;20055;-74
2021/12/13 05:23:11;;;;;;;11.68;1.38;;;10.90;99.90;;;;;;4970000;28;20061;-71
2021/12/13 05:25:55;;;;;;;10.85;1.30;;;10.90;99.90;;;;;;4969597;28;20062;-73
2021/12/13 05:28:27;;;;;;;10.23;1.65;;;10.90;99.90;;;;;;4985375;28;20058;-71
2021/12/13 05:31:04;;;;;;;7.20;1.30;;;10.90;99.90;;;;;;4977068;28;20065;-71
2021/12/13 05:33:35;;;;;;;8.30;1.60;;;10.90;99.90;;;;;;4969683;28;20058;-71
2021/12/13 05:36:08;;;;;;;8.80;1.40;;;10.90;99.90;;;;;;4984396;28;20081;-74
2021/12/13 05:38:40;;;;;;;9.27;1.40;;;10.90;99.90;;;;;;4968743;28;20055;-71
2021/12/13 05:41:19;;;;;;;8.38;1.35;;;10.90;99.90;;;;;;4970635;28;20054;-72
2021/12/13 05:43:50;;;;;;;12.57;1.92;;;10.90;99.90;;;;;;5001546;28;20484;-72
2021/12/13 05:46:25;;;;;;;7.18;1.80;;;10.90;99.90;;;;;;5009041;28;20054;-71
2021/12/13 05:49:00;;;;;;;8.30;1.45;;;10.90;99.90;;;;;;5003307;28;20225;-71
2021/12/13 05:51:36;;;;;;;9.55;1.50;;;10.90;99.90;;;;;;5002480;28;20495;-74
2021/12/13 05:54:20;;;;;;;9.60;1.80;;;10.90;99.90;;;;;;4988843;28;20506;-72
2021/12/13 05:56:55;;;;;;;5.20;1.55;;;10.90;99.90;;;;;;4988413;28;20053;-74
2021/12/13 05:59:37;;;;;;;11.57;1.70;;;10.90;99.90;;;;;;4988598;28;20057;-76
2021/12/13 06:02:11;;;;;;;8.20;1.60;;;11.00;99.90;;;;;;4987331;28;20054;-71
2021/12/13 06:04:41;;;;;;;11.75;1.75;;;11.00;99.90;;;;;;5020059;28;20069;-73
2021/12/13 06:07:26;;;;;;;11.93;1.58;;;11.00;99.90;;;;;;4986383;28;20061;-72
2021/12/13 06:09:54;;;;;;;11.32;1.45;;;11.00;99.90;;;;;;4987874;28;20581;-72
2021/12/13 06:12:25;;;;;;;11.55;1.42;;;11.00;99.90;;;;;;5019725;28;20046;-72
2021/12/13 06:14:53;;;;;;;4.95;1.45;;;11.00;99.90;;;;;;4986607;28;20402;-72
2021/12/13 06:17:30;;;;;;;9.07;1.50;;;11.00;99.90;;;;;;4969967;28;20070;-73
2021/12/13 06:20:04;;;;;;;10.65;1.25;;;11.00;99.90;;;;;;4970576;28;20420;-73
2021/12/13 06:22:33;;;;;;;7.10;1.45;;;11.00;99.90;;;;;;4987909;28;20050;-72
2021/12/13 06:25:08;;;;;;;10.23;1.45;;;11.00;99.90;;;;;;4986403;28;20066;-73
2021/12/13 06:27:43;;;;;;;8.77;1.23;;;11.00;99.90;;;;;;4986348;28;20050;-71
2021/12/13 06:30:18;;;;;;;5.28;1.30;;;11.00;99.90;;;;;;4986594;28;20069;-72
2021/12/13 06:33:00;;;;;;;6.47;1.30;;;11.00;99.90;;;;;;4987878;28;20139;-73
2021/12/13 06:35:43;;;;;;;6.13;1.23;;;11.00;99.90;;;;;;4987478;28;20053;-74
2021/12/13 06:38:19;;;;;;;7.07;1.45;;;11.10;99.90;;;;;;4987732;28;20050;-76
2021/12/13 06:41:16;;;;;;;6.15;1.10;;;11.00;99.90;;;;;;4987970;28;20061;-76
2021/12/13 06:43:52;;;;;;;6.82;1.27;;;11.00;99.90;;;;;;4986278;28;20046;-75
2021/12/13 06:46:22;;;;;;;9.13;1.10;;;11.00;99.90;;;;;;4987209;28;20054;-76
2021/12/13 06:48:58;;;;;;;8.60;1.02;;;11.00;99.90;;;;;;4986937;28;20050;-72
2021/12/13 06:51:47;;;;;;;8.82;1.20;;;11.00;99.90;;;;;;4987212;28;20046;-75
2021/12/13 06:54:24;;;;;;;5.38;1.10;;;11.00;99.90;;;;;;4986469;28;20049;-75
2021/12/13 06:57:17;;;;;;;6.95;1.23;;;11.00;99.90;;;;;;4987394;28;20073;-72
2021/12/13 06:59:56;;;;;;;9.07;1.52;;;11.00;99.90;;;;;;4986930;28;20587;-73
2021/12/13 07:02:28;;;;;;;5.13;1.30;;;11.00;99.90;;;;;;4987493;28;20553;-76
2021/12/13 07:05:07;;;;;;;9.43;1.30;;;10.90;99.90;;;;;;4985990;28;20050;-76
2021/12/13 07:08:08;;;;;;;10.65;1.30;;;11.00;99.90;;;;;;4987211;28;20051;-73
2021/12/13 07:11:00;;;;;;;13.32;1.73;;;11.00;99.90;;;;;;4986254;28;20054;-76
2021/12/13 07:13:38;;;;;;;8.23;1.30;;;11.00;99.90;;;;;;4985910;28;20047;-75
2021/12/13 07:16:06;;;;;;;9.57;1.55;;;11.00;99.90;;;;;;4985232;28;20061;-75
2021/12/13 07:18:48;;;;;;;7.63;1.23;;;11.00;99.90;;;;;;4986612;28;20059;-73
2021/12/13 07:21:46;;;;;;;8.85;1.50;;;11.00;99.90;;;;;;4987244;28;20511;-74
2021/12/13 07:24:26;;;;;;;11.68;1.58;;;11.00;99.90;;;;;;4988621;28;20046;-75
2021/12/13 07:27:07;;;;;;;10.60;1.45;;;10.90;99.90;;;;;;5004377;28;20054;-73
2021/12/13 07:30:16;;;;;;;7.03;1.40;;;10.90;99.90;;;;;;4984020;28;20064;-72
2021/12/13 07:32:53;;;;;;;11.23;1.48;;;11.00;99.90;;;;;;4963379;28;20054;-72
2021/12/13 07:35:31;;;;;;;12.88;1.48;;;11.00;99.90;;;;;;4983346;28;20050;-72
2021/12/13 07:38:05;;;;;;;5.50;1.50;;;11.00;99.90;;;;;;4985939;28;20057;-75
2021/12/13 07:40:47;;;;;;;8.70;1.58;;;11.00;99.90;;;;;;4965898;28;20666;-78
2021/12/13 07:43:29;;;;;;;6.50;1.40;;;10.90;99.90;;;;;;4978538;28;20782;-77
2021/12/13 07:46:11;;;;;;;11.00;1.73;;;10.90;99.90;;;;;;4981410;28;20042;-78
2021/12/13 07:48:44;;;;;;;8.20;1.70;;;10.90;99.90;;;;;;4993690;28;20431;-78
2021/12/13 07:51:15;;;;;;;11.23;1.70;;;10.90;99.90;;;;;;4989237;28;20038;-79
2021/12/13 07:53:58;;;;;;;10.80;1.80;;;11.00;99.90;;;;;;4975175;28;20065;-77
2021/12/13 07:56:33;;;;;;;6.20;1.52;;;11.00;99.90;;;;;;4983990;28;20431;-76
2021/12/13 07:59:04;;;;;;;9.73;1.60;;;11.00;99.90;;;;;;4985852;28;20642;-78
2021/12/13 08:01:40;;;;;;;10.88;1.80;;;11.00;99.90;;;;;;4995065;28;20167;-76
2021/12/13 08:04:17;;;;;;;8.50;1.70;;;11.00;99.90;;;;;;4984536;28;20046;-80
2021/12/13 08:06:49;;;;;;;6.68;1.50;;;11.00;99.90;;;;;;4984776;28;20038;-79
2021/12/13 08:09:22;;;;;;;7.85;1.55;;;11.00;99.90;;;;;;4984532;28;20493;-85
2021/12/13 08:12:00;;;;;;;11.05;1.80;;;11.00;99.90;;;;;;4999838;28;20381;-76
2021/12/13 08:14:35;;;;;;;7.88;1.77;;;11.00;99.90;;;;;;4988718;28;20048;-76
2021/12/13 08:17:13;;;;;;;8.90;1.70;;;11.00;99.90;;;;;;4987438;28;20054;-77
2021/12/13 08:19:41;;;;;;;6.95;1.70;;;11.00;99.90;;;;;;4988176;28;20229;-77
2021/12/13 08:22:14;;;;;;;10.27;1.92;;;11.00;99.90;;;;;;4988758;28;20046;-78
2021/12/13 08:24:48;;;;;;;9.15;2.13;;;11.10;99.90;;;;;;4989046;28;20042;-74
2021/12/13 08:27:24;;;;;;;5.90;1.80;;;11.10;99.90;;;;;;4989818;28;20054;-76
2021/12/13 08:30:09;;;;;;;5.47;1.65;;;11.00;99.90;;;;;;4987230;28;20076;-78
2021/12/13 08:32:52;;;;;;;9.43;1.98;;;11.10;99.90;;;;;;5018330;28;20053;-73
2021/12/13 08:35:20;;;;;;;15.43;2.20;;;11.10;99.90;;;;;;4988823;28;20491;-72
2021/12/13 08:37:55;;;;;;;8.10;2.35;;;11.10;99.90;;;;;;4988924;28;20057;-76
2021/12/13 08:40:30;;;;;;;10.50;2.33;;;11.10;99.90;;;;;;4989546;28;20045;-72
2021/12/13 08:42:59;;;;;;;12.05;2.45;;;11.10;99.90;;;;;;4989136;28;20058;-73
2021/12/13 08:45:39;;;;;;;7.20;2.00;;;11.10;99.90;;;;;;4988922;28;20042;-75
2021/12/13 08:48:15;;;;;;;10.73;2.30;;;11.10;99.90;;;;;;4988518;28;20054;-74
2021/12/13 08:50:50;;;;;;;7.35;1.80;;;11.10;99.90;;;;;;5002518;28;20403;-75
2021/12/13 08:53:34;;;;;;;13.88;2.60;;;11.10;99.90;;;;;;4987447;28;20073;-75
2021/12/13 08:56:13;;;;;;;16.52;2.55;;;11.10;99.90;;;;;;5002281;28;20054;-75
2021/12/13 08:59:05;;;;;;;12.57;2.60;;;11.10;99.90;;;;;;4987839;28;20058;-72
2021/12/13 09:01:49;;;;;;;15.93;2.95;;;11.10;99.90;;;;;;4987684;28;20058;-74
2021/12/13 09:04:41;;;;;;;17.13;2.33;;;11.20;99.90;;;;;;4980747;28;20043;-77
2021/12/13 09:07:12;;;;;;;13.35;2.50;;;11.20;99.90;;;;;;4979659;28;20050;-73
2021/12/13 09:09:46;;;;;;;21.63;2.80;;;11.20;99.90;;;;;;5020088;28;20053;-72
2021/12/13 09:12:24;;;;;;;11.45;2.15;;;11.20;99.90;;;;;;4988287;28;20077;-75
2021/12/13 09:14:55;;;;;;;9.85;2.35;;;11.30;99.90;;;;;;4962648;28;20055;-78
2021/12/13 09:17:37;;;;;;;16.65;2.80;;;11.30;99.90;;;;;;4978224;28;20038;-77
2021/12/13 09:20:13;;;;;;;13.88;1.80;;;11.30;99.90;;;;;;5003324;28;20046;-79
2021/12/13 09:22:46;;;;;;;16.45;2.17;;;11.30;99.90;;;;;;5017741;28;20062;-77
2021/12/13 09:25:52;;;;;;;14.63;2.10;;;11.40;99.90;;;;;;4987333;28;20042;-78
2021/12/13 09:28:27;;;;;;;10.63;1.85;;;11.40;99.90;;;;;;4985372;28;20058;-75
2021/12/13 09:31:00;;;;;;;8.00;1.65;;;11.40;99.90;;;;;;4999538;28;20049;-74
2021/12/13 09:33:37;;;;;;;9.50;1.80;;;11.40;99.90;;;;;;4980256;28;20051;-74
2021/12/13 09:36:08;;;;;;;10.00;2.05;;;11.40;99.90;;;;;;4955339;28;20070;-78
2021/12/13 09:38:39;;;;;;;9.90;1.77;;;11.40;99.90;;;;;;4976612;28;20073;-77
2021/12/13 09:41:19;;;;;;;9.25;1.80;;;11.40;99.90;;;;;;5000605;28;20070;-75
2021/12/13 09:43:54;;;;;;;15.32;1.73;;;11.40;99.90;;;;;;4986699;28;20048;-74
2021/12/13 09:46:40;;;;;;;10.23;2.25;;;11.40;99.90;;;;;;4985752;28;20384;-77
2021/12/13 09:49:23;;;;;;;11.07;1.60;;;11.40;99.90;;;;;;4987824;28;20480;-73
2021/12/13 09:52:03;;;;;;;11.60;2.05;;;11.50;99.90;;;;;;4987704;28;20050;-76
2021/12/13 09:54:37;;;;;;;10.18;2.20;;;11.50;99.90;;;;;;4985745;28;20057;-78
2021/12/13 09:57:15;;;;;;;13.95;1.88;;;11.50;99.90;;;;;;4986115;28;20042;-80
2021/12/13 10:00:43;;;;;;;9.82;1.98;;;11.60;99.90;;;;;;4986700;28;20058;-80
2021/12/13 10:03:19;;;;;;;10.13;1.75;;;11.50;99.90;;;;;;4987780;28;20061;-78
2021/12/13 10:05:51;;;;;;;11.18;1.73;;;11.50;99.90;;;;;;4987285;28;20046;-79
2021/12/13 10:08:44;;;;;;;8.73;1.70;;;11.60;99.90;;;;;;4998542;28;20065;-76
2021/12/13 10:11:38;;;;;;;10.27;1.70;;;11.60;99.90;;;;;;4970954;28;20050;-74
2021/12/13 10:14:08;;;;;;;11.48;1.60;;;11.60;99.90;;;;;;4981718;28;20602;-77
2021/12/13 10:16:43;;;;;;;7.15;1.10;;;11.50;99.90;;;;;;4964250;28;20527;-80
2021/12/13 10:19:16;;;;;;;7.13;1.33;;;11.50;99.90;;;;;;4984542;28;20506;-79
2021/12/13 10:21:47;;;;;;;11.13;1.40;;;11.40;99.90;;;;;;4985558;28;20600;-82
2021/12/13 10:24:35;;;;;;;7.50;1.38;;;11.40;99.90;;;;;;4981281;28;20054;-83
2021/12/13 10:27:11;;;;;;;7.07;1.23;;;11.40;99.90;;;;;;4998396;28;20402;-84
2021/12/13 10:29:46;;;;;;;6.72;1.08;;;11.40;99.90;;;;;;4985004;28;20046;-78
2021/12/13 10:32:26;;;;;;;11.60;1.48;;;11.30;99.90;;;;;;4984814;28;20046;-82
2021/12/13 10:35:07;;;;;;;7.45;1.33;;;11.30;99.90;;;;;;4984168;28;20050;-81
2021/12/13 10:37:40;;;;;;;7.28;1.10;;;11.30;99.90;;;;;;4984736;28;20046;-79
2021/12/13 10:40:17;;;;;;;13.10;1.40;;;11.20;99.90;;;;;;4986863;28;20518;-82
2021/12/13 10:42:53;;;;;;;8.40;1.33;;;11.20;99.90;;;;;;4982171;28;20054;-81
2021/12/13 10:45:30;;;;;;;4.28;1.23;;;11.20;99.90;;;;;;5010162;28;20057;-81
2021/12/13 10:48:02;;;;;;;4.90;1.48;;;11.20;99.90;;;;;;4981105;28;20045;-83
2021/12/13 10:50:42;;;;;;;11.07;1.50;;;11.20;99.90;;;;;;4985581;28;20054;-74
2021/12/13 10:53:13;;;;;;;7.32;1.60;;;11.20;99.90;;;;;;5017313;28;20053;-80
2021/12/13 10:55:50;;;;;;;7.43;1.63;;;11.20;99.90;;;;;;5000752;28;20043;-81
2021/12/13 10:58:28;;;;;;;7.40;1.92;;;11.10;99.90;;;;;;4985169;28;20057;-77
2021/12/13 11:00:59;;;;;;;;;;;11.10;99.90;;;;;;4983833;28;20498;-80
2021/12/13 11:03:31;;;;;;;9.93;1.73;;;11.10;99.90;;;;;;4984793;28;19929;-81
2021/12/13 11:05:59;;;;;;;6.75;1.15;;;11.20;99.90;;;;;;4987077;28;20058;-74
2021/12/13 11:08:29;;;;;;;10.52;1.15;;;11.60;99.90;;;;;;4985099;28;20436;-75
2021/12/13 11:11:05;;;;;;;1.80;0.68;;;11.90;99.90;;;;;;4986753;28;20049;-78
2021/12/13 11:13:37;;;;;;;2.40;0.80;;;12.20;99.90;;;;;;4985734;28;20061;-77
2021/12/13 11:16:29;;;;;;;4.30;0.77;;;12.40;99.90;;;;;;5001134;28;20053;-78
2021/12/13 11:18:57;;;;;;;4.50;0.70;;;12.50;99.90;;;;;;5000755;28;20053;-72
2021/12/13 11:21:35;;;;;;;6.35;0.90;;;12.50;99.90;;;;;;4981687;28;20042;-75
2021/12/13 11:24:06;;;;;;;5.40;0.70;;;12.60;99.90;;;;;;4985760;28;20042;-76
2021/12/13 11:26:37;;;;;;;2.83;0.70;;;12.80;99.90;;;;;;4986570;28;20046;-77
2021/12/13 11:29:06;;;;;;;3.80;0.98;;;12.80;99.90;;;;;;4982503;28;20042;-73
2021/12/13 11:31:52;;;;;;;6.30;0.90;;;12.80;99.90;;;;;;4983562;28;20507;-77
2021/12/13 11:34:48;;;;;;;3.65;0.85;;;12.70;99.90;;;;;;4983031;28;20058;-73
2021/12/13 11:37:50;;;;;;;2.47;0.90;;;12.60;99.90;;;;;;4982349;28;20058;-74
2021/12/13 11:40:33;;;;;;;2.83;0.80;;;12.50;99.90;;;;;;5000836;28;20442;-71
2021/12/13 11:43:21;;;;;;;2.75;0.40;;;12.30;99.90;;;;;;4985900;28;20065;-73
2021/12/13 11:46:16;;;;;;;5.25;0.90;;;12.20;99.90;;;;;;4988404;28;20050;-75
2021/12/13 11:49:15;;;;;;;4.93;0.90;;;12.10;99.90;;;;;;4971027;28;20055;-75
2021/12/13 11:52:09;;;;;;;3.95;0.75;;;12.10;99.90;;;;;;4984427;28;20051;-76
2021/12/13 11:55:17;;;;;;;7.22;0.90;;;12.10;99.90;;;;;;4972084;28;20047;-73
2021/12/13 11:58:22;;;;;;;6.40;0.80;;;12.00;99.90;;;;;;4970618;28;20053;-74
2021/12/13 12:01:27;;;;;;;2.92;0.60;;;12.00;99.90;;;;;;4970775;28;20043;-73
2021/12/13 12:04:07;;;;;;;3.30;0.60;;;12.00;99.90;;;;;;4970176;28;20738;-75
2021/12/13 12:06:47;;;;;;;2.47;0.70;;;11.90;99.90;;;;;;4970044;28;20047;-75
2021/12/13 12:09:42;;;;;;;1.42;0.40;;;11.90;99.90;;;;;;4988460;28;20054;-76
2021/12/13 12:12:19;;;;;;;2.53;0.52;;;11.80;99.90;;;;;;4989588;28;20073;-76
2021/12/13 12:14:49;;;;;;;2.25;0.43;;;11.70;99.90;;;;;;5004326;28;20050;-72
2021/12/13 12:17:18;;;;;;;5.07;0.60;;;11.70;99.90;;;;;;4988262;28;20054;-76
2021/12/13 12:19:46;;;;;;;6.78;0.57;;;11.70;99.90;;;;;;4988394;28;20065;-75
2021/12/13 12:22:17;;;;;;;2.92;0.50;;;11.70;99.90;;;;;;4988568;28;20050;-72
2021/12/13 12:24:52;;;;;;;2.13;0.70;;;11.70;99.90;;;;;;4987840;28;20049;-72
2021/12/13 12:27:31;;;;;;;3.05;0.55;;;11.70;99.90;;;;;;4970790;28;20494;-73
2021/12/13 12:30:07;;;;;;;3.00;0.60;;;11.70;99.90;;;;;;5001916;28;20403;-74
2021/12/13 12:32:44;;;;;;;4.72;0.65;;;11.70;99.90;;;;;;4996476;28;20477;-73
2021/12/13 12:35:19;;;;;;;4.50;0.70;;;11.60;99.90;;;;;;4984545;28;20058;-73
2021/12/13 12:37:59;;;;;;;3.80;0.73;;;11.60;99.90;;;;;;5020482;28;20046;-72
2021/12/13 12:40:35;;;;;;;6.50;0.98;;;11.60;99.90;;;;;;4989155;28;20534;-72
2021/12/13 12:43:13;;;;;;;3.17;1.00;;;11.60;99.90;;;;;;4988630;28;20042;-74
2021/12/13 12:45:48;;;;;;;4.28;1.15;;;11.60;99.90;;;;;;4989414;28;20062;-72
2021/12/13 12:48:50;;;;;;;4.15;1.50;;;11.60;99.90;;;;;;4988331;28;20435;-72
2021/12/13 12:51:24;;;;;;;5.07;1.02;;;11.60;99.90;;;;;;4988302;28;20073;-72
2021/12/13 12:54:03;;;;;;;3.35;0.80;;;11.60;99.90;;;;;;4979810;28;20161;-73
2021/12/13 12:56:44;;;;;;;7.55;1.10;;;11.50;99.90;;;;;;4986447;28;20054;-73
2021/12/13 12:59:19;;;;;;;7.80;1.13;;;11.60;99.90;;;;;;4987475;28;20038;-71
2021/12/13 13:01:53;;;;;;;5.47;1.33;;;11.60;99.90;;;;;;4988929;28;20046;-73
2021/12/13 13:04:27;;;;;;;4.80;1.27;;;11.60;99.90;;;;;;4970780;28;20038;-72
2021/12/13 13:07:17;;;;;;;6.65;2.25;;;11.60;99.90;;;;;;4987983;28;20050;-72
2021/12/13 13:09:50;;;;;;;5.78;0.93;;;11.60;99.90;;;;;;4986752;28;20433;-73
2021/12/13 13:12:35;;;;;;;5.07;1.58;;;11.60;99.90;;;;;;4984126;28;20054;-72
2021/12/13 13:15:08;;;;;;;4.28;1.25;;;11.60;99.90;;;;;;4988106;28;20279;-73
2021/12/13 13:17:43;;;;;;;4.88;1.00;;;11.70;99.90;;;;;;4984671;28;20303;-72
2021/12/13 13:20:26;;;;;;;4.07;1.25;;;11.70;99.90;;;;;;4986024;28;20050;-74
2021/12/13 13:22:56;;;;;;;3.75;0.77;;;11.70;99.90;;;;;;5003409;28;20054;-75
2021/12/13 13:25:49;;;;;;;6.45;1.40;;;11.70;99.90;;;;;;5003025;28;20562;-77
2021/12/13 13:28:21;;;;;;;3.97;0.77;;;11.60;99.90;;;;;;4986698;28;20051;-74
2021/12/13 13:31:08;;;;;;;11.27;1.42;;;11.60;99.90;;;;;;4984946;28;20043;-77
2021/12/13 13:33:43;;;;;;;9.13;1.48;;;11.60;99.90;;;;;;4984076;28;20050;-79
2021/12/13 13:36:15;;;;;;;4.93;1.80;;;11.50;99.90;;;;;;5015915;28;20619;-76
2021/12/13 13:38:44;;;;;;;6.07;1.13;;;11.60;99.90;;;;;;4988161;28;20475;-74
2021/12/13 13:41:20;;;;;;;10.30;1.95;;;11.50;99.90;;;;;;4982795;28;21018;-74
2021/12/13 13:43:49;;;;;;;3.28;1.10;;;11.50;99.90;;;;;;4995029;28;20423;-71
2021/12/13 13:46:24;;;;;;;3.75;1.17;;;11.50;99.90;;;;;;4985664;28;20409;-71
2021/12/13 13:48:52;;;;;;;1.75;0.50;;;11.50;99.90;;;;;;5001489;28;20046;-73
2021/12/13 13:51:20;;;;;;;5.32;1.10;;;11.50;99.90;;;;;;4987114;28;20399;-73
2021/12/13 13:53:53;;;;;;;5.50;0.95;;;11.50;99.90;;;;;;4986680;28;20053;-76